首页
METAR-TAF:

METAR-TAF

机场 :

唐卡斯特, 英格兰

纬度: 53-29N, 经度: 001-00W, 海拔: 17米

当前天气观测

该预报发布于43分钟前的22:20 UTC
风速9节,风向西北
温度 9°C
湿度 81%
气压 1011 hPa
能见度10公里或以上
1500米以下无云,无积雨云

METAR: EGCN 032220Z 32009KT CAVOK 09/06 Q1011

时间: 00:03 (23:03 UTC)

预报

该预报发布于6小时和4分钟前的16:59 UTC
预报有效从03日的 18点(UTC)到 04日的 18点(UTC)
风速13节,风向北转西北
能见度10公里或以上
散云层高于2000英尺
短暂存在
从 03日的 18点(UTC)到 04日的 03点(UTC)
能見度: 8000
多云层高于1200英尺
小雨
几率 40% :
短暂存在
从 04日的 12点(UTC)到 04日的 18点(UTC)
能見度: 8000
阵雨

TAF: EGCN 031659Z 0318/0418 33013KT 9999 SCT020 TEMPO 0318/0403 8000 -RA BKN012 PROB40 TEMPO 0412/0418 8000 SHRA

超过4000个机场的气象观测和天气预报(METAR&TAF报告)。

可查询的气象台以黄色和红色小点在地图上表示。

将鼠标移到小点上方,可查看气象台名称。

然后点击查看天气观测和预报。

如需切换地图:点击带黑十字的绿色按钮放大地图;点击带横线的绿色按钮缩小地图;或者点击绿色箭头查看邻近地区的地图。


METAR-TAF: